createdAt,value
2023-10-16T00:00:23.858Z,6.69
2023-10-16T00:00:53.906Z,6.71
2023-10-16T00:01:23.724Z,6.69
2023-10-16T00:01:53.700Z,6.70
2023-10-16T00:02:23.704Z,6.67
2023-10-16T00:02:53.775Z,6.66
2023-10-16T00:03:23.805Z,6.66
2023-10-16T00:03:53.837Z,6.66
2023-10-16T00:04:23.788Z,6.69
2023-10-16T00:04:53.699Z,6.69
2023-10-16T00:05:23.644Z,6.69
2023-10-16T00:05:53.651Z,6.69
2023-10-16T00:06:23.665Z,6.70
2023-10-16T00:06:53.652Z,6.71
2023-10-16T00:07:23.663Z,6.73
2023-10-16T00:07:53.610Z,6.71
2023-10-16T00:08:23.619Z,6.70
2023-10-16T00:08:53.650Z,6.69
2023-10-16T00:09:23.733Z,6.69
2023-10-16T00:09:53.593Z,6.69
2023-10-16T00:10:23.586Z,6.69
2023-10-16T00:10:53.587Z,6.69
2023-10-16T00:11:23.578Z,6.67
2023-10-16T00:11:53.561Z,6.67
2023-10-16T00:12:23.610Z,6.66
2023-10-16T00:12:53.565Z,6.67
2023-10-16T00:13:23.552Z,6.64
2023-10-16T00:13:53.580Z,6.64
2023-10-16T00:14:23.909Z,6.62
2023-10-16T00:14:53.696Z,6.62
2023-10-16T00:15:23.571Z,6.64
2023-10-16T00:15:53.519Z,6.62
2023-10-16T00:16:23.732Z,6.64
2023-10-16T00:16:53.515Z,6.64
2023-10-16T00:17:23.513Z,6.64
2023-10-16T00:17:53.531Z,6.64
2023-10-16T00:18:23.533Z,6.61
2023-10-16T00:18:53.537Z,6.62
2023-10-16T00:19:23.529Z,6.59
2023-10-16T00:19:53.513Z,6.62
2023-10-16T00:20:23.483Z,6.62
2023-10-16T00:20:53.479Z,6.62
2023-10-16T00:21:23.531Z,6.61
2023-10-16T00:21:53.613Z,6.62
2023-10-16T00:22:23.506Z,6.64
2023-10-16T00:22:53.452Z,6.61
2023-10-16T00:23:23.443Z,6.61
2023-10-16T00:23:53.460Z,6.62
2023-10-16T00:24:23.558Z,6.61
2023-10-16T00:24:53.533Z,6.62
2023-10-16T00:25:23.439Z,6.62
2023-10-16T00:25:53.425Z,6.61
2023-10-16T00:26:23.468Z,6.61
2023-10-16T00:26:53.408Z,6.59
2023-10-16T00:27:23.471Z,6.61
2023-10-16T00:27:53.448Z,6.59
2023-10-16T00:28:23.552Z,6.59
2023-10-16T00:28:53.742Z,6.59
2023-10-16T00:29:23.372Z,6.58
2023-10-16T00:29:53.382Z,6.58
2023-10-16T00:30:23.401Z,6.58
2023-10-16T00:30:53.385Z,6.58
2023-10-16T00:31:23.422Z,6.59
2023-10-16T00:31:54.198Z,6.59
2023-10-16T00:32:23.364Z,6.59
2023-10-16T00:32:53.357Z,6.58
2023-10-16T00:33:23.392Z,6.58
2023-10-16T00:33:53.383Z,6.59
2023-10-16T00:34:23.581Z,6.59
2023-10-16T00:34:53.333Z,6.59
2023-10-16T00:35:23.317Z,6.61
2023-10-16T00:35:53.335Z,6.61
2023-10-16T00:36:23.347Z,6.62
2023-10-16T00:36:53.352Z,6.62
2023-10-16T00:37:23.317Z,6.61
2023-10-16T00:37:53.281Z,6.61
2023-10-16T00:38:23.294Z,6.61
2023-10-16T00:38:53.399Z,6.62
2023-10-16T00:39:23.337Z,6.64
2023-10-16T00:39:53.382Z,6.62
2023-10-16T00:40:23.261Z,6.62
2023-10-16T00:40:53.261Z,6.62
2023-10-16T00:41:23.248Z,6.61
2023-10-16T00:41:53.262Z,6.59
2023-10-16T00:42:23.401Z,6.61
2023-10-16T00:42:53.448Z,6.64
2023-10-16T00:43:23.241Z,6.64
2023-10-16T00:43:53.286Z,6.64
2023-10-16T00:44:23.609Z,6.64
2023-10-16T00:44:53.219Z,6.64
2023-10-16T00:45:23.224Z,6.66
2023-10-16T00:45:53.297Z,6.64
2023-10-16T00:46:23.223Z,6.64
2023-10-16T00:46:54.245Z,6.59
2023-10-16T00:47:23.225Z,6.61
2023-10-16T00:47:53.363Z,6.59
2023-10-16T00:48:23.276Z,6.58
2023-10-16T00:48:53.175Z,6.59
2023-10-16T00:49:23.199Z,6.59
2023-10-16T00:49:53.211Z,6.58
2023-10-16T00:50:23.163Z,6.56
2023-10-16T00:50:53.154Z,6.58
2023-10-16T00:51:34.211Z,6.59
2023-10-16T00:51:53.215Z,6.59
2023-10-16T00:52:23.167Z,6.56
2023-10-16T00:52:53.138Z,6.56
2023-10-16T00:53:23.119Z,6.56
2023-10-16T00:53:53.136Z,6.56
2023-10-16T00:54:23.142Z,6.58
2023-10-16T00:54:53.190Z,6.56
2023-10-16T00:55:23.091Z,6.58
2023-10-16T00:55:53.095Z,6.56
2023-10-16T00:56:23.242Z,6.52
2023-10-16T00:56:53.224Z,6.54
2023-10-16T00:57:23.094Z,6.54
2023-10-16T00:57:53.091Z,6.54
2023-10-16T00:58:23.070Z,6.55
2023-10-16T00:58:53.072Z,6.55
2023-10-16T00:59:23.054Z,6.55
2023-10-16T00:59:53.042Z,6.56
2023-10-16T01:00:23.093Z,6.55
2023-10-16T01:00:53.117Z,6.52
2023-10-16T01:01:23.065Z,6.54
2023-10-16T01:01:53.031Z,6.52
2023-10-16T01:02:23.087Z,6.51
2023-10-16T01:02:53.094Z,6.52
2023-10-16T01:03:23.092Z,6.51
2023-10-16T01:03:53.112Z,6.52
2023-10-16T01:04:23.022Z,6.52
2023-10-16T01:04:52.990Z,6.52
2023-10-16T01:05:23.034Z,6.52
2023-10-16T01:05:52.992Z,6.52
2023-10-16T01:06:23.013Z,6.52
2023-10-16T01:06:53.075Z,6.49
2023-10-16T01:07:22.964Z,6.51
2023-10-16T01:07:52.952Z,6.51
2023-10-16T01:08:22.956Z,6.51
2023-10-16T01:08:52.958Z,6.52
2023-10-16T01:09:23.015Z,6.52
2023-10-16T01:09:52.985Z,6.52
2023-10-16T01:10:23.085Z,6.52
2023-10-16T01:10:53.232Z,6.55
2023-10-16T01:11:22.918Z,6.52
2023-10-16T01:11:52.944Z,6.51
2023-10-16T01:12:22.993Z,6.52
2023-10-16T01:12:52.928Z,6.52
2023-10-16T01:13:22.917Z,6.54
2023-10-16T01:13:52.914Z,6.52
2023-10-16T01:14:22.893Z,6.52
2023-10-16T01:14:52.887Z,6.54
2023-10-16T01:15:22.902Z,6.55
2023-10-16T01:15:52.923Z,6.56
2023-10-16T01:16:22.960Z,6.55
2023-10-16T01:16:52.879Z,6.55
2023-10-16T01:17:22.904Z,6.56
2023-10-16T01:17:52.924Z,6.56
2023-10-16T01:18:22.907Z,6.56
2023-10-16T01:18:52.900Z,6.58
2023-10-16T01:19:22.842Z,6.58
2023-10-16T01:19:52.838Z,6.56
2023-10-16T01:20:22.829Z,6.59
2023-10-16T01:20:52.813Z,6.58
2023-10-16T01:21:22.815Z,6.55
2023-10-16T01:21:52.870Z,6.55
2023-10-16T01:22:23.721Z,6.54
2023-10-16T01:22:52.833Z,6.55
2023-10-16T01:23:24.606Z,6.55
2023-10-16T01:23:52.803Z,6.58
2023-10-16T01:24:22.935Z,6.59
2023-10-16T01:24:53.744Z,6.58
2023-10-16T01:25:22.760Z,6.59
2023-10-16T01:25:52.789Z,6.59
2023-10-16T01:26:22.768Z,6.61
2023-10-16T01:26:52.751Z,6.61
2023-10-16T01:27:22.767Z,6.62
2023-10-16T01:27:52.791Z,6.61
2023-10-16T01:28:22.758Z,6.62
2023-10-16T01:28:52.746Z,6.64
2023-10-16T01:29:22.730Z,6.62
2023-10-16T01:29:52.717Z,6.66
2023-10-16T01:30:22.738Z,6.64
2023-10-16T01:30:52.761Z,6.64
2023-10-16T01:31:22.721Z,6.67
2023-10-16T01:31:52.973Z,6.69
2023-10-16T01:32:23.408Z,6.69
2023-10-16T01:32:53.759Z,6.67
2023-10-16T01:33:24.203Z,6.69
2023-10-16T01:33:52.757Z,6.69
2023-10-16T01:34:22.663Z,6.69
2023-10-16T01:34:52.675Z,6.67
2023-10-16T01:35:22.696Z,6.67
2023-10-16T01:35:52.663Z,6.69
2023-10-16T01:36:22.705Z,6.69
2023-10-16T01:36:52.826Z,6.70
2023-10-16T01:37:22.640Z,6.71
2023-10-16T01:37:52.631Z,6.70
2023-10-16T01:38:22.753Z,6.71
2023-10-16T01:38:52.835Z,6.73
2023-10-16T01:39:22.692Z,6.74
2023-10-16T01:39:52.624Z,6.74
2023-10-16T01:40:22.673Z,6.76
2023-10-16T01:40:52.615Z,6.79
2023-10-16T01:41:22.634Z,6.77
2023-10-16T01:41:52.644Z,6.79
2023-10-16T01:42:22.648Z,6.81
2023-10-16T01:42:52.652Z,6.81
2023-10-16T01:43:23.233Z,6.81
2023-10-16T01:43:52.578Z,6.81
2023-10-16T01:44:22.562Z,6.81
2023-10-16T01:44:52.922Z,6.84
2023-10-16T01:45:22.612Z,6.85
2023-10-16T01:45:52.729Z,6.85
2023-10-16T01:46:22.745Z,6.88
2023-10-16T01:46:52.596Z,6.87
2023-10-16T01:47:22.584Z,6.85
2023-10-16T01:47:52.597Z,6.88
2023-10-16T01:48:22.569Z,6.88
2023-10-16T01:48:52.561Z,6.88
2023-10-16T01:49:22.550Z,6.89
2023-10-16T01:49:52.491Z,6.87
2023-10-16T01:50:23.131Z,6.87
2023-10-16T01:50:52.498Z,6.88
2023-10-16T01:51:22.495Z,6.88
2023-10-16T01:51:52.552Z,6.88
2023-10-16T01:52:22.600Z,6.89
2023-10-16T01:52:52.677Z,6.88
2023-10-16T01:53:22.460Z,6.88
2023-10-16T01:53:52.490Z,6.85
2023-10-16T01:54:22.491Z,6.87
2023-10-16T01:54:52.523Z,6.88
2023-10-16T01:55:22.715Z,6.84
2023-10-16T01:55:52.511Z,6.87
2023-10-16T01:56:22.456Z,6.85
2023-10-16T01:56:52.443Z,6.85
2023-10-16T01:57:22.484Z,6.87
2023-10-16T01:57:52.566Z,6.85
2023-10-16T01:58:22.422Z,6.87
2023-10-16T01:58:52.402Z,6.87
2023-10-16T01:59:22.612Z,6.87
2023-10-16T01:59:52.434Z,6.85
2023-10-16T02:00:22.445Z,6.87
2023-10-16T02:00:52.483Z,6.88
2023-10-16T02:01:22.409Z,6.87
2023-10-16T02:01:52.386Z,6.87
2023-10-16T02:02:22.476Z,6.87
2023-10-16T02:02:52.389Z,6.85
2023-10-16T02:03:23.075Z,6.85
2023-10-16T02:03:52.405Z,6.85
2023-10-16T02:04:22.339Z,6.85
2023-10-16T02:04:52.365Z,6.84
2023-10-16T02:05:22.355Z,6.84
2023-10-16T02:05:52.345Z,6.84
2023-10-16T02:06:22.482Z,6.84
2023-10-16T02:06:52.622Z,6.87
2023-10-16T02:07:22.354Z,6.84
2023-10-16T02:07:52.299Z,6.85
2023-10-16T02:08:22.294Z,6.81
2023-10-16T02:08:52.332Z,6.80
2023-10-16T02:09:22.342Z,6.80
2023-10-16T02:09:52.335Z,6.79
2023-10-16T02:10:22.301Z,6.77
2023-10-16T02:10:52.336Z,6.77
2023-10-16T02:11:22.281Z,6.76
2023-10-16T02:11:52.314Z,6.76
2023-10-16T02:12:22.310Z,6.79
2023-10-16T02:12:52.308Z,6.76
2023-10-16T02:13:22.243Z,6.76
2023-10-16T02:13:52.258Z,6.76
2023-10-16T02:14:22.244Z,6.76
2023-10-16T02:14:52.255Z,6.76
2023-10-16T02:15:22.737Z,6.74
2023-10-16T02:15:52.278Z,6.76
2023-10-16T02:16:22.259Z,6.74
2023-10-16T02:16:52.218Z,6.73
2023-10-16T02:17:22.193Z,6.73
2023-10-16T02:17:52.237Z,6.73
2023-10-16T02:18:22.239Z,6.71
2023-10-16T02:18:52.212Z,6.71
2023-10-16T02:19:22.214Z,6.71
2023-10-16T02:19:52.188Z,6.70
2023-10-16T02:20:22.334Z,6.71
2023-10-16T02:20:53.629Z,6.71
2023-10-16T02:21:22.234Z,6.71
2023-10-16T02:21:52.176Z,6.71
2023-10-16T02:22:22.144Z,6.71
2023-10-16T02:22:52.129Z,6.71
2023-10-16T02:23:22.207Z,6.71
2023-10-16T02:23:52.180Z,6.70
2023-10-16T02:24:22.174Z,6.70
2023-10-16T02:24:52.147Z,6.70
2023-10-16T02:25:22.106Z,6.71
2023-10-16T02:25:52.166Z,6.71
2023-10-16T02:26:22.101Z,6.70
2023-10-16T02:26:52.229Z,6.70
2023-10-16T02:27:22.153Z,6.70
2023-10-16T02:27:52.126Z,6.69
2023-10-16T02:28:22.111Z,6.70
2023-10-16T02:28:52.079Z,6.66
2023-10-16T02:29:22.095Z,6.64
2023-10-16T02:29:52.067Z,6.64
2023-10-16T02:30:22.120Z,6.66
2023-10-16T02:30:52.107Z,6.64
2023-10-16T02:31:22.117Z,6.62
2023-10-16T02:31:52.052Z,6.62
2023-10-16T02:32:22.051Z,6.62
2023-10-16T02:32:52.077Z,6.59
2023-10-16T02:33:22.042Z,6.61
2023-10-16T02:33:52.124Z,6.59
2023-10-16T02:34:22.169Z,6.56
2023-10-16T02:34:52.255Z,6.58
2023-10-16T02:35:22.034Z,6.56
2023-10-16T02:35:52.053Z,6.56
2023-10-16T02:36:22.012Z,6.56
2023-10-16T02:36:52.042Z,6.58
2023-10-16T02:37:22.313Z,6.56
2023-10-16T02:37:51.988Z,6.58
2023-10-16T02:38:21.961Z,6.56
2023-10-16T02:38:52.010Z,6.56
2023-10-16T02:39:22.003Z,6.58
2023-10-16T02:39:52.657Z,6.55
2023-10-16T02:40:21.976Z,6.54
2023-10-16T02:40:51.998Z,6.54
2023-10-16T02:41:21.984Z,6.54
2023-10-16T02:41:51.946Z,6.55
2023-10-16T02:42:21.974Z,6.55
2023-10-16T02:42:51.945Z,6.55
2023-10-16T02:43:21.924Z,6.55
2023-10-16T02:43:51.934Z,6.55
2023-10-16T02:44:21.926Z,6.55
2023-10-16T02:44:51.916Z,6.54
2023-10-16T02:45:21.957Z,6.54
2023-10-16T02:45:51.945Z,6.54
2023-10-16T02:46:21.984Z,6.54
2023-10-16T02:46:52.757Z,6.54
2023-10-16T02:47:21.889Z,6.54
2023-10-16T02:47:51.927Z,6.55
2023-10-16T02:48:21.998Z,6.52
2023-10-16T02:48:52.078Z,6.55
2023-10-16T02:49:21.855Z,6.55
2023-10-16T02:49:51.928Z,6.54
2023-10-16T02:50:21.885Z,6.54
2023-10-16T02:50:51.849Z,6.54
2023-10-16T02:51:21.879Z,6.55
2023-10-16T02:51:51.893Z,6.54
2023-10-16T02:52:21.813Z,6.54
2023-10-16T02:52:51.822Z,6.54
2023-10-16T02:53:21.812Z,6.55
2023-10-16T02:53:51.811Z,6.55
2023-10-16T02:54:21.863Z,6.56
2023-10-16T02:54:51.878Z,6.56
2023-10-16T02:55:21.831Z,6.58
2023-10-16T02:55:51.801Z,6.59
2023-10-16T02:56:21.836Z,6.58
2023-10-16T02:56:51.805Z,6.58
2023-10-16T02:57:21.808Z,6.58
2023-10-16T02:57:51.840Z,6.58
2023-10-16T02:58:21.796Z,6.59
2023-10-16T02:58:51.755Z,6.58
2023-10-16T02:59:21.771Z,6.58
2023-10-16T02:59:52.747Z,6.59
2023-10-16T03:00:21.809Z,6.58
2023-10-16T03:00:51.779Z,6.56
2023-10-16T03:01:21.849Z,6.58
2023-10-16T03:01:51.927Z,6.56
2023-10-16T03:02:21.885Z,6.58
2023-10-16T03:02:51.963Z,6.59
2023-10-16T03:03:21.807Z,6.56
2023-10-16T03:03:51.757Z,6.56
2023-10-16T03:04:21.697Z,6.59
2023-10-16T03:04:51.711Z,6.58
2023-10-16T03:05:21.733Z,6.59
2023-10-16T03:05:51.725Z,6.58
2023-10-16T03:06:21.711Z,6.56
2023-10-16T03:06:51.719Z,6.58
2023-10-16T03:07:21.827Z,6.56
2023-10-16T03:07:51.672Z,6.58
2023-10-16T03:08:21.664Z,6.59
2023-10-16T03:08:51.662Z,6.58
2023-10-16T03:09:21.667Z,6.59
2023-10-16T03:09:51.871Z,6.59
2023-10-16T03:10:21.691Z,6.58
2023-10-16T03:10:51.631Z,6.56
2023-10-16T03:11:22.379Z,6.58
2023-10-16T03:11:51.612Z,6.58
2023-10-16T03:12:21.893Z,6.56
2023-10-16T03:12:51.644Z,6.56
2023-10-16T03:13:21.604Z,6.58
2023-10-16T03:13:51.620Z,6.56
2023-10-16T03:14:21.592Z,6.58
2023-10-16T03:14:51.593Z,6.56
2023-10-16T03:15:21.693Z,6.56
2023-10-16T03:15:51.629Z,6.55
2023-10-16T03:16:21.729Z,6.56
2023-10-16T03:16:51.778Z,6.56
2023-10-16T03:17:21.557Z,6.56
2023-10-16T03:17:51.756Z,6.58
2023-10-16T03:18:21.545Z,6.55
2023-10-16T03:18:51.622Z,6.55
2023-10-16T03:19:21.550Z,6.54
2023-10-16T03:19:51.605Z,6.54
2023-10-16T03:20:21.604Z,6.54
2023-10-16T03:20:51.557Z,6.52
2023-10-16T03:21:21.519Z,6.51
2023-10-16T03:21:51.521Z,6.54
2023-10-16T03:22:21.495Z,6.54
2023-10-16T03:22:51.599Z,6.52
2023-10-16T03:23:21.510Z,6.51
2023-10-16T03:23:51.504Z,6.52
2023-10-16T03:24:21.507Z,6.52
2023-10-16T03:24:51.561Z,6.54
2023-10-16T03:25:21.474Z,6.56
2023-10-16T03:25:51.502Z,6.55
2023-10-16T03:26:21.485Z,6.58
2023-10-16T03:26:51.473Z,6.58
2023-10-16T03:27:21.489Z,6.59
2023-10-16T03:27:52.054Z,6.59
2023-10-16T03:28:21.436Z,6.61
2023-10-16T03:28:51.440Z,6.61
2023-10-16T03:29:21.427Z,6.58
2023-10-16T03:29:52.130Z,6.58
2023-10-16T03:30:21.573Z,6.58
2023-10-16T03:30:51.648Z,6.58
2023-10-16T03:31:21.611Z,6.58
2023-10-16T03:31:51.405Z,6.58
2023-10-16T03:32:21.428Z,6.58
2023-10-16T03:32:51.446Z,6.56
2023-10-16T03:33:21.545Z,6.58
2023-10-16T03:33:51.387Z,6.56
2023-10-16T03:34:21.417Z,6.58
2023-10-16T03:34:51.398Z,6.58
2023-10-16T03:35:21.374Z,6.55
2023-10-16T03:35:51.378Z,6.55
2023-10-16T03:36:21.425Z,6.55
2023-10-16T03:36:51.378Z,6.54
2023-10-16T03:37:21.344Z,6.55
2023-10-16T03:37:51.342Z,6.54
2023-10-16T03:38:21.357Z,6.54
2023-10-16T03:38:51.368Z,6.54
2023-10-16T03:39:21.363Z,6.54
2023-10-16T03:39:51.365Z,6.56
2023-10-16T03:40:21.336Z,6.56
2023-10-16T03:40:51.309Z,6.56
2023-10-16T03:41:21.371Z,6.55
2023-10-16T03:41:51.528Z,6.56
2023-10-16T03:42:21.308Z,6.56
2023-10-16T03:42:51.321Z,6.55
2023-10-16T03:43:21.287Z,6.55
2023-10-16T03:43:51.300Z,6.52
2023-10-16T03:44:21.394Z,6.52
2023-10-16T03:44:51.501Z,6.55
2023-10-16T03:45:21.334Z,6.52
2023-10-16T03:45:51.327Z,6.55
2023-10-16T03:46:21.284Z,6.54
2023-10-16T03:46:51.317Z,6.52
2023-10-16T03:47:21.231Z,6.55
2023-10-16T03:47:51.301Z,6.55
2023-10-16T03:48:21.347Z,6.54
2023-10-16T03:48:51.259Z,6.52
2023-10-16T03:49:21.224Z,6.54
2023-10-16T03:49:51.218Z,6.54
2023-10-16T03:50:21.203Z,6.55
2023-10-16T03:50:51.211Z,6.54
2023-10-16T03:51:21.219Z,6.55
2023-10-16T03:51:51.232Z,6.56
2023-10-16T03:52:21.186Z,6.56
2023-10-16T03:52:51.175Z,6.58
2023-10-16T03:53:21.170Z,6.56
2023-10-16T03:53:51.167Z,6.58
2023-10-16T03:54:21.231Z,6.56
2023-10-16T03:54:51.216Z,6.54
2023-10-16T03:55:21.222Z,6.55
2023-10-16T03:55:51.225Z,6.56
2023-10-16T03:56:21.163Z,6.58
2023-10-16T03:56:51.162Z,6.59
2023-10-16T03:57:21.168Z,6.59
2023-10-16T03:57:51.177Z,6.59
2023-10-16T03:58:21.240Z,6.59
2023-10-16T03:58:51.335Z,6.59
2023-10-16T03:59:21.128Z,6.58
2023-10-16T03:59:51.100Z,6.56
2023-10-16T04:00:21.136Z,6.58
2023-10-16T04:00:51.165Z,6.58
2023-10-16T04:01:21.122Z,6.59
2023-10-16T04:01:51.148Z,6.59
2023-10-16T04:02:21.522Z,6.59
2023-10-16T04:02:51.075Z,6.59
2023-10-16T04:03:21.100Z,6.59
2023-10-16T04:03:51.180Z,6.59
2023-10-16T04:04:21.183Z,6.61
2023-10-16T04:04:51.060Z,6.64
2023-10-16T04:05:21.032Z,6.64
2023-10-16T04:05:51.790Z,6.66
2023-10-16T04:06:21.127Z,6.64
2023-10-16T04:06:51.082Z,6.67
2023-10-16T04:07:21.028Z,6.66
2023-10-16T04:07:51.029Z,6.70
2023-10-16T04:08:21.010Z,6.69
2023-10-16T04:08:50.999Z,6.70
2023-10-16T04:09:21.056Z,6.70
2023-10-16T04:09:51.388Z,6.71
2023-10-16T04:10:20.996Z,6.71
2023-10-16T04:10:51.007Z,6.73
2023-10-16T04:11:20.991Z,6.74
2023-10-16T04:11:50.985Z,6.74
2023-10-16T04:12:21.192Z,6.74
2023-10-16T04:12:51.189Z,6.76
2023-10-16T04:13:20.940Z,6.74
2023-10-16T04:13:50.974Z,6.76
2023-10-16T04:14:20.987Z,6.76
2023-10-16T04:14:50.939Z,6.76
2023-10-16T04:15:20.975Z,6.77
2023-10-16T04:15:51.033Z,6.77
2023-10-16T04:16:20.948Z,6.77
2023-10-16T04:16:50.937Z,6.77
2023-10-16T04:17:20.925Z,6.77
2023-10-16T04:17:50.952Z,6.77
2023-10-16T04:18:20.944Z,6.80
2023-10-16T04:18:50.923Z,6.80
2023-10-16T04:19:20.929Z,6.80
2023-10-16T04:19:50.902Z,6.79
2023-10-16T04:20:20.881Z,6.77
2023-10-16T04:20:50.867Z,6.79
2023-10-16T04:21:20.915Z,6.79
2023-10-16T04:21:50.887Z,6.77
2023-10-16T04:22:20.887Z,6.77
2023-10-16T04:22:50.865Z,6.76
2023-10-16T04:23:20.847Z,6.76
2023-10-16T04:23:50.858Z,6.76
2023-10-16T04:24:20.954Z,6.76
2023-10-16T04:24:50.912Z,6.74
2023-10-16T04:25:20.954Z,6.76
2023-10-16T04:25:50.831Z,6.76
2023-10-16T04:26:20.956Z,6.76
2023-10-16T04:26:51.009Z,6.76
2023-10-16T04:27:20.890Z,6.76
2023-10-16T04:27:50.864Z,6.74
2023-10-16T04:28:20.788Z,6.76
2023-10-16T04:28:50.788Z,6.74
2023-10-16T04:29:20.795Z,6.76
2023-10-16T04:29:50.814Z,6.76
2023-10-16T04:30:20.820Z,6.76
2023-10-16T04:30:50.849Z,6.76
2023-10-16T04:31:20.842Z,6.74
2023-10-16T04:31:50.811Z,6.76
2023-10-16T04:32:20.773Z,6.76
2023-10-16T04:32:50.832Z,6.76
2023-10-16T04:33:20.785Z,6.76
2023-10-16T04:33:50.734Z,6.76
2023-10-16T04:34:20.727Z,6.77
2023-10-16T04:34:50.724Z,6.77
2023-10-16T04:35:20.733Z,6.79
2023-10-16T04:35:50.725Z,6.79
2023-10-16T04:36:20.750Z,6.80
2023-10-16T04:36:50.741Z,6.80
2023-10-16T04:37:20.731Z,6.81
2023-10-16T04:37:50.704Z,6.84
2023-10-16T04:38:20.672Z,6.84
2023-10-16T04:38:50.681Z,6.84
2023-10-16T04:39:20.743Z,6.85
2023-10-16T04:39:50.719Z,6.85
2023-10-16T04:40:20.784Z,6.85
2023-10-16T04:40:50.805Z,6.87
2023-10-16T04:41:20.657Z,6.85
2023-10-16T04:41:50.659Z,6.88
2023-10-16T04:42:20.701Z,6.88
2023-10-16T04:42:50.683Z,6.89
2023-10-16T04:43:20.676Z,6.91
2023-10-16T04:43:50.617Z,6.91
2023-10-16T04:44:20.629Z,6.88
2023-10-16T04:44:50.633Z,6.89
2023-10-16T04:45:20.643Z,6.89
2023-10-16T04:45:50.671Z,6.88
2023-10-16T04:46:20.608Z,6.92
2023-10-16T04:46:50.622Z,6.91
2023-10-16T04:47:21.763Z,6.94
2023-10-16T04:47:50.692Z,6.97
2023-10-16T04:48:20.622Z,6.97
2023-10-16T04:48:50.737Z,6.98
2023-10-16T04:49:20.569Z,6.99
2023-10-16T04:49:50.550Z,6.99
2023-10-16T04:50:20.576Z,6.99
2023-10-16T04:51:37.229Z,6.98
2023-10-16T04:51:54.914Z,6.97
2023-10-16T04:52:20.547Z,6.97
2023-10-16T04:52:50.547Z,6.97
2023-10-16T04:53:20.527Z,6.97
2023-10-16T04:53:50.496Z,6.99
2023-10-16T04:54:20.672Z,6.99
2023-10-16T04:54:50.659Z,7.02
2023-10-16T04:55:20.503Z,7.02
2023-10-16T04:55:50.499Z,7.02
2023-10-16T04:56:20.485Z,7.02
2023-10-16T04:56:50.475Z,7.02
2023-10-16T04:57:20.541Z,7.02
2023-10-16T04:57:50.566Z,7.02
2023-10-16T04:58:20.665Z,7.02
2023-10-16T04:58:50.456Z,6.98
2023-10-16T04:59:20.474Z,6.98
2023-10-16T04:59:50.493Z,6.98
2023-10-16T05:00:20.467Z,6.98
2023-10-16T05:00:50.504Z,6.98
2023-10-16T05:01:20.447Z,6.98
2023-10-16T05:01:50.478Z,6.99
2023-10-16T05:02:20.411Z,6.97
2023-10-16T05:02:50.418Z,6.97
2023-10-16T05:03:20.481Z,6.99
2023-10-16T05:03:50.467Z,6.97
2023-10-16T05:04:20.507Z,6.98
2023-10-16T05:04:50.404Z,6.98
2023-10-16T05:05:20.453Z,6.98
2023-10-16T05:05:50.376Z,6.98
2023-10-16T05:06:20.448Z,6.99
2023-10-16T05:06:50.602Z,6.98
2023-10-16T05:07:20.360Z,6.99
2023-10-16T05:07:50.368Z,6.99
2023-10-16T05:08:20.541Z,7.02
2023-10-16T05:08:50.498Z,7.02
2023-10-16T05:09:20.403Z,7.02
2023-10-16T05:09:50.388Z,7.02
2023-10-16T05:10:20.352Z,7.02
2023-10-16T05:10:50.344Z,7.02
2023-10-16T05:11:20.323Z,7.02
2023-10-16T05:11:50.312Z,6.99
2023-10-16T05:12:20.332Z,6.99
2023-10-16T05:12:50.321Z,7.02
2023-10-16T05:13:20.303Z,7.03
2023-10-16T05:13:50.322Z,7.03
2023-10-16T05:14:20.296Z,7.05
2023-10-16T05:14:50.286Z,7.03
2023-10-16T05:15:20.360Z,7.03
2023-10-16T05:15:50.309Z,7.02
2023-10-16T05:16:20.315Z,7.05
2023-10-16T05:16:50.517Z,7.06
2023-10-16T05:17:20.263Z,7.06
2023-10-16T05:17:50.227Z,7.07
2023-10-16T05:18:20.274Z,7.07
2023-10-16T05:18:53.436Z,7.07
2023-10-16T05:19:20.238Z,7.09
2023-10-16T05:19:50.240Z,7.10
2023-10-16T05:20:20.190Z,7.10
2023-10-16T05:20:50.162Z,7.12
2023-10-16T05:21:20.292Z,7.09
2023-10-16T05:21:50.163Z,7.10
2023-10-16T05:22:20.259Z,7.12
2023-10-16T05:22:50.416Z,7.12
2023-10-16T05:23:20.195Z,7.10
2023-10-16T05:23:50.223Z,7.09
2023-10-16T05:24:20.154Z,7.07
2023-10-16T05:24:50.422Z,7.10
2023-10-16T05:25:20.184Z,7.10
2023-10-16T05:25:51.318Z,7.10
2023-10-16T05:26:20.111Z,7.10
2023-10-16T05:26:50.168Z,7.12
2023-10-16T05:27:20.157Z,7.15
2023-10-16T05:27:50.252Z,7.13
2023-10-16T05:28:20.140Z,7.15
2023-10-16T05:28:50.104Z,7.15
2023-10-16T05:29:20.106Z,7.15
2023-10-16T05:29:52.611Z,7.12
2023-10-16T05:30:20.108Z,7.12
2023-10-16T05:30:50.146Z,7.12
2023-10-16T05:31:20.079Z,7.10
2023-10-16T05:31:50.060Z,7.09
2023-10-16T05:32:20.057Z,7.07
2023-10-16T05:32:50.103Z,7.07
2023-10-16T05:33:20.024Z,7.07
2023-10-16T05:33:50.069Z,7.09
2023-10-16T05:34:20.042Z,7.09
2023-10-16T05:34:50.021Z,7.07
2023-10-16T05:35:20.013Z,7.09
2023-10-16T05:35:50.018Z,7.09
2023-10-16T05:36:20.134Z,7.07
2023-10-16T05:36:50.200Z,7.09
2023-10-16T05:37:19.990Z,7.09
2023-10-16T05:37:50.016Z,7.10
2023-10-16T05:38:20.013Z,7.10
2023-10-16T05:38:49.970Z,7.13
2023-10-16T05:39:19.990Z,7.15
2023-10-16T05:39:50.025Z,7.15
2023-10-16T05:40:19.982Z,7.13
2023-10-16T05:40:49.962Z,7.15
2023-10-16T05:41:19.945Z,7.13
2023-10-16T05:41:49.968Z,7.13
2023-10-16T05:42:19.943Z,7.15
2023-10-16T05:42:50.007Z,7.15
2023-10-16T05:43:19.950Z,7.16
2023-10-16T05:43:49.916Z,7.15
2023-10-16T05:44:19.918Z,7.15
2023-10-16T05:44:49.915Z,7.15
2023-10-16T05:45:19.927Z,7.16
2023-10-16T05:45:49.945Z,7.16
2023-10-16T05:46:19.958Z,7.13
2023-10-16T05:46:49.919Z,7.15
2023-10-16T05:47:19.904Z,7.15
2023-10-16T05:47:49.926Z,7.12
2023-10-16T05:48:19.893Z,7.13
2023-10-16T05:48:49.964Z,7.12
2023-10-16T05:49:19.868Z,7.12
2023-10-16T05:49:49.908Z,7.13
2023-10-16T05:50:20.008Z,7.13
2023-10-16T05:50:49.992Z,7.15
2023-10-16T05:51:19.841Z,7.13
2023-10-16T05:51:49.926Z,7.15
2023-10-16T05:52:19.896Z,7.16
2023-10-16T05:52:49.831Z,7.15
2023-10-16T05:53:19.863Z,7.16
2023-10-16T05:53:49.811Z,7.15
2023-10-16T05:54:19.878Z,7.16
2023-10-16T05:54:49.854Z,7.16
2023-10-16T05:55:19.834Z,7.15
2023-10-16T05:55:49.788Z,7.15
2023-10-16T05:56:19.843Z,7.15
2023-10-16T05:56:49.805Z,7.15
2023-10-16T05:57:20.768Z,7.13
2023-10-16T05:57:49.857Z,7.13
2023-10-16T05:58:19.822Z,7.13
2023-10-16T05:58:49.817Z,7.12
2023-10-16T05:59:19.761Z,7.13
2023-10-16T05:59:49.794Z,7.15
2023-10-16T06:00:19.783Z,7.15
2023-10-16T06:00:49.798Z,7.15
2023-10-16T06:01:19.738Z,7.15
2023-10-16T06:01:49.812Z,7.16
2023-10-16T06:02:19.716Z,7.17
2023-10-16T06:02:50.908Z,7.15
2023-10-16T06:03:19.809Z,7.16
2023-10-16T06:03:49.895Z,7.15
2023-10-16T06:04:19.920Z,7.16
2023-10-16T06:04:50.017Z,7.16
2023-10-16T06:05:20.069Z,7.17
2023-10-16T06:05:49.725Z,7.16
2023-10-16T06:06:19.682Z,7.16
2023-10-16T06:06:49.729Z,7.16
2023-10-16T06:07:19.680Z,7.16
2023-10-16T06:07:49.664Z,7.16
2023-10-16T06:08:19.688Z,7.15
2023-10-16T06:08:49.657Z,7.15
2023-10-16T06:09:19.652Z,7.16
2023-10-16T06:09:49.676Z,7.15
2023-10-16T06:10:19.629Z,7.17
2023-10-16T06:10:49.614Z,7.20
2023-10-16T06:11:19.612Z,7.17
2023-10-16T06:11:49.617Z,7.17
2023-10-16T06:12:19.616Z,7.17
2023-10-16T06:12:49.670Z,7.17
2023-10-16T06:13:19.651Z,7.20
2023-10-16T06:13:49.613Z,7.21
2023-10-16T06:14:19.587Z,7.23
2023-10-16T06:14:49.585Z,7.24
2023-10-16T06:15:19.576Z,7.25
2023-10-16T06:15:49.706Z,7.24
2023-10-16T06:16:19.614Z,7.24
2023-10-16T06:16:49.647Z,7.24
2023-10-16T06:17:19.573Z,7.25
2023-10-16T06:17:49.611Z,7.24
2023-10-16T06:18:19.702Z,7.24
2023-10-16T06:18:49.824Z,7.25
2023-10-16T06:19:19.552Z,7.25
2023-10-16T06:19:49.519Z,7.24
2023-10-16T06:20:19.531Z,7.23
2023-10-16T06:20:49.515Z,7.25
2023-10-16T06:21:19.494Z,7.23
2023-10-16T06:21:50.423Z,7.27
2023-10-16T06:22:19.526Z,7.25
2023-10-16T06:22:49.521Z,7.25
2023-10-16T06:23:19.497Z,7.27
2023-10-16T06:23:49.484Z,7.28
2023-10-16T06:24:19.520Z,7.30
2023-10-16T06:24:50.305Z,7.31
2023-10-16T06:25:19.469Z,7.32
2023-10-16T06:25:49.475Z,7.34
2023-10-16T06:26:19.458Z,7.37
2023-10-16T06:26:49.466Z,7.34
2023-10-16T06:27:19.431Z,7.37
2023-10-16T06:27:49.463Z,7.37
2023-10-16T06:28:19.425Z,7.35
2023-10-16T06:28:49.430Z,7.37
2023-10-16T06:29:19.420Z,7.40
2023-10-16T06:29:49.457Z,7.39
2023-10-16T06:30:19.404Z,7.40
2023-10-16T06:30:49.494Z,7.42
2023-10-16T06:31:19.446Z,7.42
2023-10-16T06:31:49.460Z,7.43
2023-10-16T06:32:19.991Z,7.43
2023-10-16T06:32:49.614Z,7.45
2023-10-16T06:33:19.378Z,7.45
2023-10-16T06:33:49.405Z,7.46
2023-10-16T06:34:19.349Z,7.45
2023-10-16T06:34:49.390Z,7.46
2023-10-16T06:35:19.369Z,7.46
2023-10-16T06:35:49.364Z,7.46
2023-10-16T06:36:19.353Z,7.45
2023-10-16T06:36:49.358Z,7.46
2023-10-16T06:37:19.330Z,7.46
2023-10-16T06:37:49.329Z,7.48
2023-10-16T06:38:19.324Z,7.46
2023-10-16T06:38:49.332Z,7.48
2023-10-16T06:39:19.323Z,7.48
2023-10-16T06:39:49.369Z,7.48